Independence — WDG9585 — position and weather

sailwx.info

Track history (hours):
 
Tides and Currents Weather Stations Pressure Air Temp Water Temp Dewpoint Dewpoint Depression Visibility Wind Speed Wind Dir Waves Ship Positions

Independence

Owner: Enterprise Marine Services, LLC, San Antonio, TX. More information available from US FCC via Universal Licensing System and Coast Guard Vessel Documentation Center.

Last reported at 2017-Sep-19 23:59 UTC. Time now 2017-Sep-20 00:17 UTC.
Position N 29°47' W 095°06'.

Length 118 m; draft 3 m.

Type: . MMSI: 367589280.

Date/timePositionNaut miles runAvg speedWind from/ knotsBaromVisibWave heightAir tempDewpointWater temp
2017-Sep-19 23:59N 29°47' W 095°06'0 0.7
2017-Sep-19 23:29N 29°47' W 095°05'1 0.7
2017-Sep-19 22:23N 29°47' W 095°04'0 0.1
2017-Sep-19 18:33N 29°47' W 095°05'0 4.3
2017-Sep-19 18:29N 29°47' W 095°04'1 0.7
2017-Sep-19 17:39N 29°48' W 095°04'0 0.5
2017-Sep-19 17:30N 29°47' W 095°04'1 1.0
2017-Sep-19 16:57N 29°47' W 095°04'0 0.1
2017-Sep-19 13:26N 29°47' W 095°05'0 0.0
2017-Sep-19 12:54N 29°47' W 095°05'0 0.0
2017-Sep-19 12:08N 29°47' W 095°05'0 0.0
2017-Sep-18 17:36N 29°47' W 095°05'0 0.1
2017-Sep-18 12:10N 29°47' W 095°05'0 0.2
2017-Sep-18 11:29N 29°47' W 095°06'0 0.0
2017-Sep-18 10:51N 29°47' W 095°06'0 0.0
2017-Sep-18 10:26N 29°47' W 095°06'0 0.0
2017-Sep-18 09:58N 29°47' W 095°06'0 0.0
2017-Sep-18 09:21N 29°47' W 095°06'0 0.0
2017-Sep-18 07:38N 29°47' W 095°06'0 0.0
2017-Sep-18 07:19N 29°47' W 095°06'0 0.0
2017-Sep-18 07:00N 29°47' W 095°06'0 0.0
2017-Sep-18 06:05N 29°47' W 095°06'0 0.0
2017-Sep-18 05:53N 29°47' W 095°06'0 0.0
2017-Sep-18 03:20N 29°47' W 095°06'0 0.0
2017-Sep-18 02:28N 29°47' W 095°06'0 0.0
2017-Sep-17 22:05N 29°47' W 095°06'0 0.0
2017-Sep-17 16:42N 29°47' W 095°06'0 0.0
2017-Sep-17 12:54N 29°47' W 095°06'0 0.0
2017-Sep-17 12:23N 29°47' W 095°06'0 0.0
2017-Sep-17 11:57N 29°47' W 095°06'0 0.0
2017-Sep-17 11:27N 29°47' W 095°06'0 0.0
2017-Sep-17 10:59N 29°47' W 095°06'0 0.0
2017-Sep-17 10:25N 29°47' W 095°06'0 0.0
2017-Sep-17 09:57N 29°47' W 095°06'0 0.0
2017-Sep-17 09:26N 29°47' W 095°06'0 0.0
2017-Sep-17 09:00N 29°47' W 095°06'0 0.0
2017-Sep-17 08:29N 29°47' W 095°06'0 0.0
2017-Sep-17 07:54N 29°47' W 095°06'0 0.0
2017-Sep-17 07:17N 29°47' W 095°06'0 0.0
2017-Sep-17 06:45N 29°47' W 095°06'0 0.0
2017-Sep-17 06:29N 29°47' W 095°06'0 0.0
2017-Sep-17 05:59N 29°47' W 095°06'0 0.0
2017-Sep-17 05:24N 29°47' W 095°06'0 0.0
2017-Sep-17 04:58N 29°47' W 095°06'0 0.0
2017-Sep-17 04:26N 29°47' W 095°06'0 0.0
2017-Sep-17 03:54N 29°47' W 095°06'0 0.0
2017-Sep-17 03:27N 29°47' W 095°06'0 0.0
2017-Sep-17 02:53N 29°47' W 095°06'1 1.7
2017-Sep-17 02:23N 29°47' W 095°05'1 2.4
2017-Sep-17 01:56N 29°46' W 095°05'3 5.9
2017-Sep-17 01:30N 29°44' W 095°03'3 6.7
2017-Sep-17 01:00N 29°42' W 095°00'4 7.5
2017-Sep-17 00:30N 29°39' W 094°58'4 8.5
2017-Sep-17 00:00N 29°35' W 094°56'  
2017-Sep-10 02:29N 29°29' W 094°51'4 7.7
2017-Sep-10 02:00N 29°32' W 094°54'4 7.7
2017-Sep-10 01:30N 29°35' W 094°56'4 7.8
2017-Sep-10 01:00N 29°38' W 094°58'4 7.7
2017-Sep-10 00:30N 29°42' W 094°60'3 6.6
2017-Sep-10 00:00N 29°44' W 095°03'  
Track history (hours):
 
Tides and Currents Weather Stations Pressure Air Temp Water Temp Dewpoint Dewpoint Depression Visibility Wind Speed Wind Dir Waves Ship Positions

Independence

Owner: Enterprise Marine Services, LLC, San Antonio, TX. More information available from US FCC via Universal Licensing System and Coast Guard Vessel Documentation Center.

Last reported at 2017-Sep-19 23:59 UTC. Time now 2017-Sep-20 00:17 UTC.
Position N 29°47' W 095°06'.

Length 118 m; draft 3 m.

Type: . MMSI: 367589280.

Date/timePositionNaut miles runAvg speedWind from/ knotsBaromVisibWave heightAir tempDewpointWater temp
2017-Sep-19 23:59N 29°47' W 095°06'0 0.7
2017-Sep-19 23:29N 29°47' W 095°05'1 0.7
2017-Sep-19 22:23N 29°47' W 095°04'0 0.1
2017-Sep-19 18:33N 29°47' W 095°05'0 4.3
2017-Sep-19 18:29N 29°47' W 095°04'1 0.7
2017-Sep-19 17:39N 29°48' W 095°04'0 0.5
2017-Sep-19 17:30N 29°47' W 095°04'1 1.0
2017-Sep-19 16:57N 29°47' W 095°04'0 0.1
2017-Sep-19 13:26N 29°47' W 095°05'0 0.0
2017-Sep-19 12:54N 29°47' W 095°05'0 0.0
2017-Sep-19 12:08N 29°47' W 095°05'0 0.0
2017-Sep-18 17:36N 29°47' W 095°05'0 0.1
2017-Sep-18 12:10N 29°47' W 095°05'0 0.2
2017-Sep-18 11:29N 29°47' W 095°06'0 0.0
2017-Sep-18 10:51N 29°47' W 095°06'0 0.0
2017-Sep-18 10:26N 29°47' W 095°06'0 0.0
2017-Sep-18 09:58N 29°47' W 095°06'0 0.0
2017-Sep-18 09:21N 29°47' W 095°06'0 0.0
2017-Sep-18 07:38N 29°47' W 095°06'0 0.0
2017-Sep-18 07:19N 29°47' W 095°06'0 0.0
2017-Sep-18 07:00N 29°47' W 095°06'0 0.0
2017-Sep-18 06:05N 29°47' W 095°06'0 0.0
2017-Sep-18 05:53N 29°47' W 095°06'0 0.0
2017-Sep-18 03:20N 29°47' W 095°06'0 0.0
2017-Sep-18 02:28N 29°47' W 095°06'0 0.0
2017-Sep-17 22:05N 29°47' W 095°06'0 0.0
2017-Sep-17 16:42N 29°47' W 095°06'0 0.0
2017-Sep-17 12:54N 29°47' W 095°06'0 0.0
2017-Sep-17 12:23N 29°47' W 095°06'0 0.0
2017-Sep-17 11:57N 29°47' W 095°06'0 0.0
2017-Sep-17 11:27N 29°47' W 095°06'0 0.0
2017-Sep-17 10:59N 29°47' W 095°06'0 0.0
2017-Sep-17 10:25N 29°47' W 095°06'0 0.0
2017-Sep-17 09:57N 29°47' W 095°06'0 0.0
2017-Sep-17 09:26N 29°47' W 095°06'0 0.0
2017-Sep-17 09:00N 29°47' W 095°06'0 0.0
2017-Sep-17 08:29N 29°47' W 095°06'0 0.0
2017-Sep-17 07:54N 29°47' W 095°06'0 0.0
2017-Sep-17 07:17N 29°47' W 095°06'0 0.0
2017-Sep-17 06:45N 29°47' W 095°06'0 0.0
2017-Sep-17 06:29N 29°47' W 095°06'0 0.0
2017-Sep-17 05:59N 29°47' W 095°06'0 0.0
2017-Sep-17 05:24N 29°47' W 095°06'0 0.0
2017-Sep-17 04:58N 29°47' W 095°06'0 0.0
2017-Sep-17 04:26N 29°47' W 095°06'0 0.0
2017-Sep-17 03:54N 29°47' W 095°06'0 0.0
2017-Sep-17 03:27N 29°47' W 095°06'0 0.0
2017-Sep-17 02:53N 29°47' W 095°06'1 1.7
2017-Sep-17 02:23N 29°47' W 095°05'1 2.4
2017-Sep-17 01:56N 29°46' W 095°05'3 5.9
2017-Sep-17 01:30N 29°44' W 095°03'3 6.7
2017-Sep-17 01:00N 29°42' W 095°00'4 7.5
2017-Sep-17 00:30N 29°39' W 094°58'4 8.5
2017-Sep-17 00:00N 29°35' W 094°56'  
2017-Sep-10 02:29N 29°29' W 094°51'4 7.7
2017-Sep-10 02:00N 29°32' W 094°54'4 7.7
2017-Sep-10 01:30N 29°35' W 094°56'4 7.8
2017-Sep-10 01:00N 29°38' W 094°58'4 7.7
2017-Sep-10 00:30N 29°42' W 094°60'3 6.6
2017-Sep-10 00:00N 29°44' W 095°03'  

Dump ship's entire track history